createdAt,value
2018-06-19T00:02:40.177Z,4.33
2018-06-19T00:05:45.546Z,4.27
2018-06-19T00:08:50.075Z,4.80
2018-06-19T00:11:54.420Z,4.37
2018-06-19T00:14:58.773Z,4.83
2018-06-19T00:18:14.433Z,4.80
2018-06-19T00:21:26.879Z,4.63
2018-06-19T00:24:31.325Z,4.03
2018-06-19T00:27:35.948Z,4.90
2018-06-19T00:30:40.393Z,4.67
2018-06-19T00:33:44.683Z,5.00
2018-06-19T00:36:48.996Z,4.83
2018-06-19T00:39:53.330Z,4.10
2018-06-19T00:42:57.594Z,4.53
2018-06-19T00:46:02.270Z,4.97
2018-06-19T00:49:07.116Z,4.43
2018-06-19T00:52:11.493Z,4.60
2018-06-19T00:55:15.951Z,4.70
2018-06-19T00:58:20.302Z,4.73
2018-06-19T01:01:24.626Z,5.57
2018-06-19T01:04:28.987Z,5.67
2018-06-19T01:07:33.275Z,4.27
2018-06-19T01:10:37.593Z,4.67
2018-06-19T01:13:41.885Z,4.93
2018-06-19T01:16:46.246Z,5.30
2018-06-19T01:19:50.773Z,4.87
2018-06-19T01:22:55.614Z,5.70
2018-06-19T01:28:57.806Z,5.87
2018-06-19T01:32:02.119Z,6.10
2018-06-19T01:35:07.001Z,4.67
2018-06-19T01:38:11.557Z,5.07
2018-06-19T01:41:15.819Z,4.97
2018-06-19T01:44:20.119Z,5.07
2018-06-19T01:47:24.575Z,4.93
2018-06-19T01:50:28.894Z,5.03
2018-06-19T01:53:33.707Z,4.80
2018-06-19T01:56:38.089Z,4.90
2018-06-19T01:59:42.578Z,4.60
2018-06-19T02:02:46.882Z,5.60
2018-06-19T02:05:51.186Z,4.90
2018-06-19T02:08:55.457Z,5.00
2018-06-19T02:11:59.752Z,4.63
2018-06-19T02:15:04.067Z,5.20
2018-06-19T02:18:08.369Z,5.43
2018-06-19T02:21:12.711Z,5.17
2018-06-19T02:24:17.060Z,5.60
2018-06-19T02:27:21.369Z,4.90
2018-06-19T02:30:25.685Z,5.17
2018-06-19T02:33:30.413Z,5.57
2018-06-19T02:36:34.737Z,5.20
2018-06-19T02:39:39.018Z,5.70
2018-06-19T02:42:43.405Z,5.50
2018-06-19T02:45:47.706Z,6.00
2018-06-19T02:48:52.187Z,5.30
2018-06-19T02:51:56.506Z,6.10
2018-06-19T02:55:00.901Z,5.30
2018-06-19T02:58:05.304Z,6.07
2018-06-19T03:01:09.616Z,5.27
2018-06-19T03:04:14.054Z,5.40
2018-06-19T03:07:18.342Z,5.20
2018-06-19T03:10:22.621Z,5.93
2018-06-19T03:13:27.282Z,5.30
2018-06-19T03:16:32.111Z,4.77
2018-06-19T03:19:36.403Z,5.17
2018-06-19T03:22:40.811Z,4.43
2018-06-19T03:25:45.733Z,4.77
2018-06-19T03:28:50.104Z,5.03
2018-06-19T03:31:54.522Z,4.43
2018-06-19T03:34:58.945Z,5.73
2018-06-19T03:38:03.358Z,4.97
2018-06-19T03:41:07.685Z,5.23
2018-06-19T03:44:12.313Z,4.40
2018-06-19T03:47:16.667Z,5.12
2018-06-19T03:50:21.058Z,5.83
2018-06-19T03:53:25.649Z,5.53
2018-06-19T03:56:29.991Z,7.20
2018-06-19T03:59:34.520Z,5.13
2018-06-19T04:02:39.554Z,5.20
2018-06-19T04:05:43.854Z,5.20
2018-06-19T04:08:48.255Z,4.80
2018-06-19T04:11:52.890Z,4.37
2018-06-19T04:14:57.615Z,4.50
2018-06-19T04:18:02.040Z,4.80
2018-06-19T04:21:07.417Z,4.87
2018-06-19T04:24:11.772Z,4.70
2018-06-19T04:27:16.070Z,4.60
2018-06-19T04:30:20.387Z,4.30
2018-06-19T04:33:24.696Z,5.23
2018-06-19T04:36:29.163Z,4.67
2018-06-19T04:39:33.517Z,4.40
2018-06-19T04:42:37.845Z,4.73
2018-06-19T04:45:42.266Z,4.93
2018-06-19T04:48:47.094Z,4.00
2018-06-19T04:51:51.457Z,4.10
2018-06-19T04:55:05.991Z,4.10
2018-06-19T04:58:12.274Z,4.63
2018-06-19T05:01:16.618Z,4.47
2018-06-19T05:04:20.980Z,4.67
2018-06-19T05:07:25.311Z,3.97
2018-06-19T05:10:29.432Z,4.03
2018-06-19T05:13:34.661Z,4.20
2018-06-19T05:16:40.371Z,4.40
2018-06-19T05:19:44.778Z,5.07
2018-06-19T05:22:50.174Z,4.70
2018-06-19T05:25:54.847Z,4.60
2018-06-19T05:28:59.653Z,4.33
2018-06-19T05:32:04.101Z,4.00
2018-06-19T05:35:10.626Z,4.47
2018-06-19T05:38:15.199Z,3.80
2018-06-19T05:41:19.810Z,3.73
2018-06-19T05:44:24.371Z,4.57
2018-06-19T05:47:29.124Z,3.77
2018-06-19T05:50:33.575Z,4.23
2018-06-19T05:53:38.037Z,4.47
2018-06-19T05:56:42.462Z,4.70
2018-06-19T05:59:47.699Z,3.92
2018-06-19T06:02:53.291Z,3.97
2018-06-19T06:05:57.884Z,3.60
2018-06-19T06:09:02.239Z,3.60
2018-06-19T06:12:06.945Z,3.07
2018-06-19T06:15:11.673Z,2.43
2018-06-19T06:18:16.782Z,2.33
2018-06-19T06:21:21.364Z,2.60
2018-06-19T06:24:25.775Z,2.57
2018-06-19T06:32:54.155Z,2.50
2018-06-19T06:35:59.805Z,3.10
2018-06-19T06:39:05.202Z,2.30
2018-06-19T06:42:09.514Z,2.03
2018-06-19T06:45:14.255Z,2.00
2018-06-19T06:48:19.400Z,1.97
2018-06-19T06:51:23.797Z,2.30
2018-06-19T06:54:28.847Z,1.93
2018-06-19T06:57:33.397Z,2.00
2018-06-19T07:00:37.715Z,2.20
2018-06-19T07:03:42.503Z,1.90
2018-06-19T07:06:46.775Z,1.63
2018-06-19T07:09:51.120Z,1.73
2018-06-19T07:12:55.405Z,1.90
2018-06-19T07:15:59.949Z,1.80
2018-06-19T07:19:04.403Z,1.73
2018-06-19T07:22:08.775Z,1.90
2018-06-19T07:25:13.375Z,1.80
2018-06-19T07:28:17.757Z,1.77
2018-06-19T07:31:22.073Z,1.97
2018-06-19T07:34:26.562Z,2.10
2018-06-19T07:37:30.837Z,1.60
2018-06-19T07:40:35.137Z,1.80
2018-06-19T07:43:39.425Z,1.87
2018-06-19T07:46:43.873Z,1.53
2018-06-19T07:49:48.223Z,1.57
2018-06-19T07:52:52.674Z,1.90
2018-06-19T07:55:57.074Z,1.40
2018-06-19T07:59:01.402Z,1.80
2018-06-19T08:02:05.929Z,1.80
2018-06-19T08:05:10.394Z,1.43
2018-06-19T08:08:14.719Z,1.37
2018-06-19T08:11:19.051Z,1.10
2018-06-19T08:14:23.729Z,0.97
2018-06-19T08:17:28.289Z,1.50
2018-06-19T08:20:32.695Z,1.10
2018-06-19T08:23:37.143Z,1.20
2018-06-19T08:26:41.589Z,1.23
2018-06-19T08:29:46.109Z,1.33
2018-06-19T08:32:50.453Z,1.30
2018-06-19T08:35:54.837Z,1.23
2018-06-19T08:38:59.193Z,1.10
2018-06-19T08:42:03.732Z,1.40
2018-06-19T08:45:08.097Z,1.00
2018-06-19T08:48:12.422Z,1.07
2018-06-19T08:51:17.102Z,1.10
2018-06-19T08:54:21.624Z,1.10
2018-06-19T08:57:28.914Z,1.27
2018-06-19T09:00:33.375Z,1.20
2018-06-19T09:03:37.777Z,1.40
2018-06-19T09:06:42.419Z,1.40
2018-06-19T09:09:48.217Z,1.43
2018-06-19T09:12:52.561Z,1.40
2018-06-19T09:15:57.149Z,1.70
2018-06-19T09:19:01.812Z,1.30
2018-06-19T09:22:06.242Z,1.70
2018-06-19T09:25:10.632Z,1.43
2018-06-19T09:28:14.966Z,1.50
2018-06-19T09:31:19.300Z,1.20
2018-06-19T09:34:23.986Z,1.37
2018-06-19T09:37:28.435Z,1.53
2018-06-19T09:40:32.920Z,1.40
2018-06-19T09:43:37.248Z,1.70
2018-06-19T09:46:42.087Z,1.63
2018-06-19T09:49:47.467Z,1.70
2018-06-19T09:52:51.958Z,1.60
2018-06-19T09:55:56.899Z,1.42
2018-06-19T09:59:01.325Z,1.60
2018-06-19T10:02:05.975Z,1.53
2018-06-19T10:05:10.366Z,1.37
2018-06-19T10:08:14.768Z,1.67
2018-06-19T10:11:19.278Z,1.90
2018-06-19T10:14:23.688Z,1.50
2018-06-19T10:17:29.027Z,1.20
2018-06-19T10:20:33.379Z,1.33
2018-06-19T10:23:37.919Z,1.10
2018-06-19T10:26:42.458Z,1.23
2018-06-19T10:29:47.841Z,1.20
2018-06-19T10:32:52.298Z,1.50
2018-06-19T10:35:56.808Z,1.50
2018-06-19T10:39:01.193Z,1.20
2018-06-19T10:42:05.514Z,1.57
2018-06-19T10:45:09.906Z,1.20
2018-06-19T10:48:14.329Z,1.50
2018-06-19T10:51:18.902Z,1.40
2018-06-19T10:54:23.378Z,1.40
2018-06-19T10:57:27.718Z,1.30
2018-06-19T11:00:32.013Z,1.57
2018-06-19T11:03:36.576Z,1.30
2018-06-19T11:06:40.919Z,1.50
2018-06-19T11:09:45.475Z,1.40
2018-06-19T11:12:49.892Z,1.30
2018-06-19T11:15:54.259Z,1.57
2018-06-19T11:18:58.795Z,1.27
2018-06-19T11:22:03.654Z,1.37
2018-06-19T11:25:07.992Z,1.47
2018-06-19T11:28:12.449Z,1.20
2018-06-19T11:31:17.782Z,1.20
2018-06-19T11:34:22.162Z,1.30
2018-06-19T11:37:26.563Z,1.40
2018-06-19T11:40:30.866Z,1.20
2018-06-19T11:43:35.689Z,1.53
2018-06-19T11:46:40.734Z,1.00
2018-06-19T11:49:45.079Z,1.20
2018-06-19T11:52:49.490Z,1.13
2018-06-19T11:55:57.164Z,0.90
2018-06-19T11:59:04.761Z,1.00
2018-06-19T12:02:09.166Z,1.13
2018-06-19T12:05:13.910Z,1.00
2018-06-19T12:08:19.077Z,1.10
2018-06-19T12:11:23.464Z,1.13
2018-06-19T12:14:27.849Z,1.07
2018-06-19T12:17:32.272Z,1.07
2018-06-19T12:20:36.673Z,0.90
2018-06-19T12:23:41.232Z,1.37
2018-06-19T12:26:45.564Z,1.37
2018-06-19T12:29:50.179Z,1.07
2018-06-19T12:32:54.632Z,1.10
2018-06-19T12:35:59.026Z,1.00
2018-06-19T12:39:03.552Z,1.03
2018-06-19T12:42:08.054Z,1.17
2018-06-19T12:45:12.461Z,1.13
2018-06-19T12:48:17.665Z,1.00
2018-06-19T12:52:04.557Z,1.07
2018-06-19T12:55:40.911Z,1.10
2018-06-19T12:58:46.390Z,0.90
2018-06-19T13:01:50.820Z,0.90
2018-06-19T13:05:12.784Z,1.30
2018-06-19T13:08:18.237Z,1.30
2018-06-19T13:15:07.898Z,1.20
2018-06-19T13:18:31.652Z,1.20
2018-06-19T13:21:36.082Z,1.43
2018-06-19T13:24:40.760Z,1.40
2018-06-19T13:27:45.474Z,0.90
2018-06-19T13:31:08.193Z,1.00
2018-06-19T13:34:12.643Z,1.17
2018-06-19T13:37:17.392Z,1.23
2018-06-19T13:42:34.840Z,0.98
2018-06-19T13:45:39.360Z,1.30
2018-06-19T13:48:43.847Z,1.13
2018-06-19T13:51:48.421Z,1.30
2018-06-19T13:54:53.034Z,1.30
2018-06-19T13:58:19.606Z,1.27
2018-06-19T14:01:24.736Z,1.37
2018-06-19T14:04:29.179Z,1.30
2018-06-19T14:08:05.031Z,1.00
2018-06-19T14:11:26.284Z,1.00
2018-06-19T14:14:30.918Z,1.00
2018-06-19T14:17:35.550Z,1.00
2018-06-19T14:20:40.744Z,0.80
2018-06-19T14:23:45.066Z,0.80
2018-06-19T14:26:49.582Z,0.50
2018-06-19T14:29:54.536Z,1.03
2018-06-19T14:33:00.366Z,0.80
2018-06-19T14:36:04.703Z,1.13
2018-06-19T14:39:09.346Z,1.33
2018-06-19T14:42:13.639Z,1.00
2018-06-19T14:45:17.911Z,1.10
2018-06-19T14:48:22.296Z,1.10
2018-06-19T14:51:26.817Z,1.10
2018-06-19T14:54:31.189Z,1.20
2018-06-19T14:57:35.909Z,1.10
2018-06-19T15:00:40.536Z,1.33
2018-06-19T15:03:44.822Z,1.10
2018-06-19T15:06:49.190Z,1.50
2018-06-19T15:09:53.563Z,1.00
2018-06-19T15:12:57.794Z,1.13
2018-06-19T15:16:02.694Z,1.20
2018-06-19T15:19:07.182Z,1.10
2018-06-19T15:22:11.509Z,1.10
2018-06-19T15:25:16.171Z,1.10
2018-06-19T15:28:20.666Z,1.43
2018-06-19T15:31:25.145Z,1.43
2018-06-19T15:35:00.831Z,1.10
2018-06-19T15:38:05.925Z,1.10
2018-06-19T15:41:10.675Z,1.23
2018-06-19T15:44:15.133Z,1.00
2018-06-19T15:47:19.630Z,1.23
2018-06-19T15:50:24.111Z,1.00
2018-06-19T15:53:28.592Z,1.00
2018-06-19T15:57:35.805Z,1.00
2018-06-19T16:00:39.995Z,1.00
2018-06-19T16:03:45.115Z,1.00
2018-06-19T16:06:49.551Z,0.90
2018-06-19T16:09:54.057Z,1.00
2018-06-19T16:12:58.447Z,1.10
2018-06-19T16:16:02.892Z,1.00
2018-06-19T16:19:07.458Z,1.20
2018-06-19T16:22:11.764Z,1.17
2018-06-19T16:25:16.154Z,1.15
2018-06-19T16:28:20.553Z,1.13
2018-06-19T16:31:26.362Z,1.10
2018-06-19T16:34:30.766Z,1.67
2018-06-19T16:37:35.406Z,1.13
2018-06-19T16:40:39.943Z,1.10
2018-06-19T16:43:44.598Z,1.13
2018-06-19T16:46:49.050Z,0.80
2018-06-19T16:49:53.498Z,1.30
2018-06-19T16:52:58.117Z,0.90
2018-06-19T16:56:02.546Z,1.13
2018-06-19T16:59:06.981Z,1.20
2018-06-19T17:02:11.757Z,1.13
2018-06-19T17:05:16.185Z,1.03
2018-06-19T17:08:20.570Z,1.20
2018-06-19T17:11:25.019Z,1.10
2018-06-19T17:14:29.466Z,1.20
2018-06-19T17:17:34.063Z,1.20
2018-06-19T17:20:38.736Z,1.07
2018-06-19T17:23:43.250Z,1.10
2018-06-19T17:26:47.721Z,1.20
2018-06-19T17:29:52.131Z,1.10
2018-06-19T17:32:56.481Z,1.47
2018-06-19T17:36:01.026Z,1.27
2018-06-19T17:39:09.832Z,1.40
2018-06-19T17:42:15.998Z,1.20
2018-06-19T17:45:21.274Z,1.20
2018-06-19T17:48:25.989Z,1.43
2018-06-19T17:51:30.630Z,1.40
2018-06-19T17:54:35.426Z,1.10
2018-06-19T17:57:40.060Z,1.10
2018-06-19T18:00:44.749Z,1.30
2018-06-19T18:03:50.724Z,1.50
2018-06-19T18:06:55.302Z,1.17
2018-06-19T18:09:59.720Z,1.20
2018-06-19T18:13:04.373Z,0.97
2018-06-19T18:16:08.922Z,1.00
2018-06-19T18:19:13.371Z,1.20
2018-06-19T18:22:19.256Z,0.80
2018-06-19T18:25:24.297Z,0.77
2018-06-19T18:28:28.947Z,0.83
2018-06-19T18:31:33.858Z,0.90
2018-06-19T18:34:38.317Z,0.90
2018-06-19T18:37:42.817Z,0.80
2018-06-19T18:40:47.599Z,0.80
2018-06-19T18:43:52.166Z,0.97
2018-06-19T18:46:56.855Z,0.70
2018-06-19T18:50:01.296Z,0.70
2018-06-19T18:53:06.238Z,0.87
2018-06-19T18:56:10.901Z,0.90
2018-06-19T18:59:15.372Z,0.80
2018-06-19T19:02:19.785Z,0.90
2018-06-19T19:05:24.131Z,1.20
2018-06-19T19:08:28.538Z,0.87
2018-06-19T19:11:33.163Z,1.10
2018-06-19T19:14:42.935Z,1.47
2018-06-19T19:17:53.214Z,1.33
2018-06-19T19:20:58.527Z,1.50
2018-06-19T19:24:02.761Z,1.17
2018-06-19T19:27:12.617Z,1.60
2018-06-19T19:30:17.372Z,1.03
2018-06-19T19:33:21.761Z,1.20
2018-06-19T19:36:31.696Z,1.30
2018-06-19T19:39:36.260Z,1.30
2018-06-19T19:42:42.545Z,1.47
2018-06-19T19:45:48.361Z,1.50
2018-06-19T19:48:57.256Z,1.53
2018-06-19T19:52:01.818Z,1.10
2018-06-19T19:55:06.193Z,1.40
2018-06-19T19:58:15.780Z,1.50
2018-06-19T20:01:20.421Z,2.17
2018-06-19T20:04:24.793Z,3.10
2018-06-19T20:07:29.202Z,2.90
2018-06-19T20:10:33.647Z,2.60
2018-06-19T20:13:38.240Z,2.30
2018-06-19T20:16:42.803Z,2.25
2018-06-19T20:19:47.294Z,2.23
2018-06-19T20:22:51.718Z,2.50
2018-06-19T20:25:56.037Z,2.33
2018-06-19T20:29:01.790Z,2.53
2018-06-19T20:32:06.275Z,1.60
2018-06-19T20:35:10.704Z,2.07
2018-06-19T20:38:15.154Z,2.00
2018-06-19T20:41:19.604Z,2.00
2018-06-19T20:44:25.033Z,2.40
2018-06-19T20:47:29.707Z,2.10
2018-06-19T20:50:34.035Z,2.67
2018-06-19T20:53:38.515Z,2.77
2018-06-19T20:56:43.486Z,3.87
2018-06-19T20:59:48.082Z,3.20
2018-06-19T21:02:52.832Z,3.03
2018-06-19T21:05:57.161Z,2.47
2018-06-19T21:09:01.684Z,3.37
2018-06-19T21:12:06.093Z,3.23
2018-06-19T21:15:10.978Z,2.80
2018-06-19T21:18:15.402Z,2.20
2018-06-19T21:21:20.352Z,2.47
2018-06-19T21:24:24.292Z,2.23
2018-06-19T21:27:28.770Z,3.22
2018-06-19T21:30:34.394Z,2.73
2018-06-19T21:33:38.855Z,2.87
2018-06-19T21:36:44.328Z,2.90
2018-06-19T21:39:48.758Z,2.80
2018-06-19T21:42:54.201Z,3.43
2018-06-19T21:45:58.533Z,4.30
2018-06-19T21:49:02.846Z,4.10
2018-06-19T21:52:08.524Z,3.40
2018-06-19T21:55:12.828Z,2.80
2018-06-19T21:58:17.193Z,2.80
2018-06-19T22:01:21.725Z,2.47
2018-06-19T22:04:26.196Z,2.83
2018-06-19T22:07:30.922Z,3.20
2018-06-19T22:10:35.968Z,3.13
2018-06-19T22:13:40.401Z,3.43
2018-06-19T22:16:45.638Z,2.70
2018-06-19T22:19:50.173Z,3.50
2018-06-19T22:22:54.514Z,3.40
2018-06-19T22:25:58.830Z,3.67
2018-06-19T22:29:03.151Z,4.23
2018-06-19T22:32:07.567Z,3.60
2018-06-19T22:35:11.846Z,3.13
2018-06-19T22:38:16.806Z,3.27
2018-06-19T22:41:22.429Z,3.20
2018-06-19T22:44:26.785Z,3.30
2018-06-19T22:47:31.067Z,2.90
2018-06-19T22:50:35.850Z,2.80
2018-06-19T22:53:40.265Z,3.20
2018-06-19T22:56:44.782Z,3.20
2018-06-19T22:59:49.341Z,3.37
2018-06-19T23:03:02.062Z,3.13
2018-06-19T23:06:06.565Z,3.03
2018-06-19T23:09:11.370Z,3.30
2018-06-19T23:12:15.760Z,3.23
2018-06-19T23:15:20.122Z,3.40
2018-06-19T23:18:25.729Z,3.20
2018-06-19T23:21:30.035Z,3.20
2018-06-19T23:24:34.516Z,3.37
2018-06-19T23:27:38.824Z,3.10
2018-06-19T23:30:43.441Z,3.47
2018-06-19T23:33:47.796Z,3.13
2018-06-19T23:36:52.102Z,3.20
2018-06-19T23:39:56.540Z,2.77
2018-06-19T23:43:01.533Z,3.47
2018-06-19T23:46:05.841Z,3.40
2018-06-19T23:49:10.173Z,3.10
2018-06-19T23:52:14.881Z,3.30
2018-06-19T23:55:19.234Z,3.30
2018-06-19T23:58:23.639Z,2.87
